Time;durP1;ratioP1;P1;durP2;ratioP2;P2;SDS_P1;SDS_P2;PMS_P1;PMS_P2;Temp;Humidity;BMP_temperature;BMP_pressure;BME280_temperature;BME280_humidity;BME280_pressure;Samples;Min_cycle;Max_cycle;Signal;HPM_P1;HPM_P2
2020/12/14 00:00:11;;;;;;;28.60;16.23;;;;;;;-1.13;92.45;96621.00;1727545;82;21119;-81
2020/12/14 00:02:41;;;;;;;29.72;17.25;;;;;;;-1.13;92.46;96621.80;1727596;83;21127;-81
2020/12/14 00:05:10;;;;;;;30.95;15.58;;;;;;;-1.09;92.44;96620.91;1727508;83;21115;-81
2020/12/14 00:07:38;;;;;;;26.73;15.23;;;;;;;-1.07;92.43;96624.11;1727562;83;21134;-81
2020/12/14 00:10:07;;;;;;;31.40;17.15;;;;;;;-1.05;92.41;96624.70;1727486;82;21138;-81
2020/12/14 00:12:35;;;;;;;24.50;13.83;;;;;;;-1.05;92.35;96626.00;1727617;83;21129;-81
2020/12/14 00:15:05;;;;;;;31.17;15.95;;;;;;;-1.04;92.37;96631.50;1727464;83;21130;-81
2020/12/14 00:17:33;;;;;;;26.37;13.93;;;;;;;-1.09;92.29;96632.63;1727977;83;21159;-81
2020/12/14 00:20:02;;;;;;;30.72;15.65;;;;;;;-1.10;92.36;96635.72;1727453;82;21147;-81
2020/12/14 00:22:35;;;;;;;28.47;14.87;;;;;;;-1.10;92.31;96639.63;1733128;82;21276;-81
2020/12/14 00:25:03;;;;;;;29.50;14.25;;;;;;;-1.09;92.36;96640.42;1669659;86;21129;-81
2020/12/14 00:27:31;;;;;;;28.05;14.63;;;;;;;-1.05;92.43;96644.21;1675388;85;21172;-81
2020/12/14 00:29:58;;;;;;;26.33;13.18;;;;;;;-1.04;92.43;96649.70;1675096;84;21188;-80
2020/12/14 00:32:25;;;;;;;28.57;14.85;;;;;;;-1.05;92.50;96644.21;1675148;86;21298;-80
2020/12/14 00:34:53;;;;;;;29.48;15.72;;;;;;;-1.08;92.47;96649.83;1675092;85;21283;-81
2020/12/14 00:37:20;;;;;;;30.52;15.72;;;;;;;-1.10;92.46;96654.44;1675341;86;21164;-80
2020/12/14 00:39:47;;;;;;;25.27;15.65;;;;;;;-1.10;92.50;96654.44;1675010;84;21128;-81
2020/12/14 00:42:14;;;;;;;26.62;14.78;;;;;;;-1.05;92.60;96651.52;1675054;86;21294;-81
2020/12/14 00:44:41;;;;;;;24.63;12.07;;;;;;;-1.01;92.51;96654.00;1675135;85;21161;-81
2020/12/14 00:47:08;;;;;;;24.43;14.53;;;;;;;-1.01;92.51;96650.59;1675161;85;21642;-81
2020/12/14 00:49:35;;;;;;;28.27;14.45;;;;;;;-0.99;92.47;96653.28;1675051;84;21665;-80
2020/12/14 00:52:04;;;;;;;26.87;15.38;;;;;;;-0.99;92.43;96659.79;1675094;85;21290;-81
2020/12/14 00:54:33;;;;;;;28.10;14.53;;;;;;;-0.98;92.39;96654.11;1675035;86;21338;-81
2020/12/14 00:57:01;;;;;;;27.87;14.47;;;;;;;-1.00;92.40;96654.80;1675335;86;21188;-81
2020/12/14 00:59:29;;;;;;;27.00;14.35;;;;;;;-1.01;92.38;96657.90;1674980;84;21551;-81
2020/12/14 01:01:56;;;;;;;24.25;12.78;;;;;;;-0.99;92.41;96659.79;1675064;86;21710;-81
2020/12/14 01:04:24;;;;;;;26.80;13.20;;;;;;;-0.98;92.44;96657.52;1675055;85;21306;-81
2020/12/14 01:06:55;;;;;;;29.85;15.13;;;;;;;-0.99;92.36;96658.99;1675261;86;21630;-81
2020/12/14 01:09:22;;;;;;;28.98;14.28;;;;;;;-1.04;92.46;96659.61;1675062;86;21310;-81
2020/12/14 01:11:49;;;;;;;27.40;16.57;;;;;;;-1.08;92.41;96666.23;1674999;85;21307;-81
2020/12/14 01:14:17;;;;;;;25.70;15.23;;;;;;;-1.10;92.44;96663.55;1675031;86;21683;-80
2020/12/14 01:16:48;;;;;;;30.23;13.55;;;;;;;-1.11;92.60;96663.25;1675032;86;21314;-81
2020/12/14 01:19:15;;;;;;;32.08;17.40;;;;;;;-1.17;92.65;96659.64;1675197;85;21638;-81
2020/12/14 01:21:42;;;;;;;29.32;16.00;;;;;;;-1.20;92.68;96663.45;1675114;84;21658;-81
2020/12/14 01:24:09;;;;;;;32.03;15.75;;;;;;;-1.15;92.71;96665.93;1675157;86;21654;-81
2020/12/14 01:26:36;;;;;;;26.85;14.98;;;;;;;-1.13;92.70;96658.22;1674962;86;21322;-81
2020/12/14 01:29:03;;;;;;;25.92;15.98;;;;;;;-1.11;92.73;96660.14;1675082;86;21159;-81
2020/12/14 01:31:30;;;;;;;24.87;12.43;;;;;;;-1.15;92.64;96661.53;1675088;84;21492;-81
2020/12/14 01:33:58;;;;;;;30.27;15.32;;;;;;;-1.15;92.70;96660.73;1675066;86;21670;-81
2020/12/14 01:36:25;;;;;;;26.75;14.68;;;;;;;-1.18;92.64;96659.84;1675001;86;21294;-81
2020/12/14 01:38:52;;;;;;;23.80;13.98;;;;;;;-1.16;92.69;96656.03;1675108;85;21686;-81
2020/12/14 01:41:19;;;;;;;23.67;14.03;;;;;;;-1.14;92.65;96664.42;1674984;84;21294;-81
2020/12/14 01:43:46;;;;;;;29.82;16.30;;;;;;;-1.16;92.66;96670.84;1674790;86;21333;-81
2020/12/14 01:46:13;;;;;;;29.90;16.45;;;;;;;-1.18;92.60;96672.84;1674992;86;21290;-81
2020/12/14 01:48:42;;;;;;;28.05;14.95;;;;;;;-1.20;92.64;96665.25;1675159;85;21302;-81
2020/12/14 01:51:09;;;;;;;30.05;15.15;;;;;;;-1.16;92.69;96668.23;1675057;84;21680;-81
2020/12/14 01:53:38;;;;;;;24.23;12.15;;;;;;;-1.15;92.66;96675.03;1675247;86;21171;-81
2020/12/14 01:56:06;;;;;;;28.90;14.60;;;;;;;-1.14;92.68;96674.03;1674894;85;21532;-81
2020/12/14 01:58:33;;;;;;;30.50;16.10;;;;;;;-1.15;92.61;96673.73;1675035;86;21176;-81
2020/12/14 02:01:02;;;;;;;29.00;15.10;;;;;;;-1.14;92.64;96672.73;1675070;84;21318;-81
2020/12/14 02:03:29;;;;;;;26.07;14.70;;;;;;;-1.15;92.64;96675.03;1675292;85;21180;-81
2020/12/14 02:05:56;;;;;;;25.85;14.63;;;;;;;-1.14;92.62;96672.23;1675150;85;21188;-81
2020/12/14 02:08:23;;;;;;;23.75;13.45;;;;;;;-1.12;92.59;96674.16;1675060;85;21294;-81
2020/12/14 02:10:50;;;;;;;23.38;11.60;;;;;;;-1.07;92.66;96676.14;1675049;84;21314;-81
2020/12/14 02:13:17;;;;;;;29.30;15.43;;;;;;;-1.03;92.64;96677.33;1675009;85;21698;-81
2020/12/14 02:15:44;;;;;;;21.52;12.53;;;;;;;-1.04;92.54;96671.32;1675152;86;21163;-80
2020/12/14 02:18:12;;;;;;;27.82;15.50;;;;;;;-1.02;92.57;96669.81;1675034;85;21313;-81
2020/12/14 02:20:38;;;;;;;26.50;14.33;;;;;;;-1.06;92.50;96666.83;1675272;84;21167;-81
2020/12/14 02:23:05;;;;;;;26.80;14.78;;;;;;;-1.02;92.56;96675.02;1690121;85;21191;-81
2020/12/14 02:25:32;;;;;;;31.20;16.35;;;;;;;-1.04;92.49;96678.33;1737546;83;21127;-81
2020/12/14 02:28:00;;;;;;;30.55;15.13;;;;;;;-1.06;92.51;96672.03;1737613;82;21107;-81
2020/12/14 02:30:27;;;;;;;27.30;14.65;;;;;;;-1.07;92.47;96666.53;1737535;81;21179;-81
2020/12/14 02:32:54;;;;;;;36.40;17.02;;;;;;;-1.04;92.51;96667.92;1680171;85;21168;-81
2020/12/14 02:35:21;;;;;;;26.35;12.07;;;;;;;-1.06;92.49;96664.22;1680142;85;21156;-81
2020/12/14 02:37:48;;;;;;;27.98;14.00;;;;;;;-1.06;92.57;96662.92;1680138;85;21136;-81
2020/12/14 02:40:15;;;;;;;29.23;15.75;;;;;;;-1.04;92.57;96660.91;1680021;84;21159;-80
2020/12/14 02:42:42;;;;;;;27.73;14.85;;;;;;;-1.07;92.47;96662.63;1680084;85;21175;-81
2020/12/14 02:45:09;;;;;;;29.80;16.70;;;;;;;-1.06;92.45;96669.93;1680109;85;21155;-81
2020/12/14 02:47:36;;;;;;;31.15;16.97;;;;;;;-1.12;92.49;96669.45;1680075;85;21549;-81
2020/12/14 02:50:05;;;;;;;29.70;16.93;;;;;;;-1.16;92.48;96674.23;1680154;84;21220;-81
2020/12/14 02:52:32;;;;;;;26.60;15.13;;;;;;;-1.15;92.53;96680.23;1680184;85;21164;-81
2020/12/14 02:54:59;;;;;;;31.97;17.05;;;;;;;-1.14;92.57;96681.84;1680135;85;21146;-81
2020/12/14 02:57:26;;;;;;;28.30;14.60;;;;;;;-1.14;92.55;96693.04;1737585;83;21664;-80
2020/12/14 02:59:53;;;;;;;31.70;15.53;;;;;;;-1.14;92.53;96683.94;1752073;81;21482;-81
2020/12/14 03:02:21;;;;;;;32.03;17.10;;;;;;;-1.16;92.51;96690.34;1767984;81;21498;-81
2020/12/14 03:04:48;;;;;;;27.42;16.37;;;;;;;-1.23;92.55;96692.47;1708568;84;21164;-81
2020/12/14 03:07:15;;;;;;;30.88;15.40;;;;;;;-1.22;92.60;96701.87;1708453;83;21156;-81
2020/12/14 03:09:41;;;;;;;33.30;17.67;;;;;;;-1.21;92.69;96703.97;1708735;84;21156;-81
2020/12/14 03:12:08;;;;;;;29.75;15.13;;;;;;;-1.23;92.68;96703.38;1699288;84;21148;-81
2020/12/14 03:14:35;;;;;;;29.07;16.32;;;;;;;-1.22;92.69;96707.06;1680169;85;21160;-81
2020/12/14 03:17:03;;;;;;;32.35;16.90;;;;;;;-1.21;92.70;96706.06;1681586;85;21155;-81
2020/12/14 03:19:30;;;;;;;28.30;15.30;;;;;;;-1.20;92.72;96707.66;1680478;85;21176;-81
2020/12/14 03:21:57;;;;;;;33.50;15.75;;;;;;;-1.11;92.72;96713.97;1677036;85;21152;-81
2020/12/14 03:24:24;;;;;;;34.58;17.82;;;;;;;-1.06;92.72;96709.75;1676603;85;21301;-81
2020/12/14 03:26:51;;;;;;;29.05;16.23;;;;;;;-1.05;92.63;96712.65;1676614;86;21159;-81
2020/12/14 03:29:18;;;;;;;29.07;14.50;;;;;;;-1.02;92.65;96713.54;1676698;86;21132;-81
2020/12/14 03:31:46;;;;;;;25.82;13.90;;;;;;;-0.96;92.68;96715.34;1676554;84;21317;-81
2020/12/14 03:34:13;;;;;;;28.80;15.03;;;;;;;-0.90;92.66;96711.13;1676624;86;21298;-81
2020/12/14 03:36:40;;;;;;;27.07;14.18;;;;;;;-0.85;92.55;96713.91;1676581;86;21536;-81
2020/12/14 03:39:07;;;;;;;35.13;17.45;;;;;;;-0.83;92.50;96720.23;1676645;86;21543;-81
2020/12/14 03:41:34;;;;;;;29.07;15.50;;;;;;;-0.83;92.37;96715.83;1676493;84;21303;-81
2020/12/14 03:44:03;;;;;;;29.55;15.05;;;;;;;-0.86;92.27;96724.02;1676712;86;21646;-81
2020/12/14 03:46:31;;;;;;;31.48;15.03;;;;;;;-0.87;92.25;96719.02;1676614;86;21184;-81
2020/12/14 03:48:59;;;;;;;29.00;15.35;;;;;;;-0.87;92.20;96722.92;1676853;86;21171;-81
2020/12/14 03:51:28;;;;;;;33.98;16.87;;;;;;;-0.89;92.18;96719.23;1676498;84;21190;-81
2020/12/14 03:53:55;;;;;;;18.27;10.63;;;;;;;-0.93;92.08;96722.74;1676590;86;21306;-81
2020/12/14 03:56:24;;;;;;;28.05;14.25;;;;;;;-1.00;92.10;96723.23;1676589;86;21299;-81
2020/12/14 03:58:53;;;;;;;17.00;10.03;;;;;;;-1.08;92.07;96730.47;1676582;86;21321;-81
2020/12/14 04:01:23;;;;;;;31.10;15.40;;;;;;;-1.17;92.21;96723.36;1679612;84;21203;-81
2020/12/14 04:03:51;;;;;;;29.23;14.87;;;;;;;-1.24;92.27;96718.17;1679619;85;21516;-81
2020/12/14 04:06:24;;;;;;;27.75;13.95;;;;;;;-1.24;92.34;96729.08;1679565;84;21159;-81
2020/12/14 04:08:53;;;;;;;28.27;13.62;;;;;;;-1.21;92.42;96729.47;1679713;84;21167;-81
2020/12/14 04:11:21;;;;;;;27.93;15.30;;;;;;;-1.15;92.44;96740.06;1679449;84;21298;-81
2020/12/14 04:13:48;;;;;;;29.42;14.95;;;;;;;-1.13;92.45;96732.86;1679480;85;21654;-81
2020/12/14 04:16:15;;;;;;;22.20;11.00;;;;;;;-1.09;92.50;96740.58;1679504;84;21518;-80
2020/12/14 04:18:42;;;;;;;17.77;9.90;;;;;;;-1.07;92.47;96732.07;1679676;84;21167;-81
2020/12/14 04:21:09;;;;;;;25.05;13.00;;;;;;;-1.07;92.47;96732.87;1679453;84;21645;-81
2020/12/14 04:23:38;;;;;;;23.55;13.65;;;;;;;-1.10;92.42;96737.68;1679534;85;21215;-81
2020/12/14 04:26:06;;;;;;;25.23;14.23;;;;;;;-1.07;92.43;96741.17;1679555;85;21159;-81
2020/12/14 04:28:33;;;;;;;29.87;15.03;;;;;;;-1.06;92.44;96737.57;1679424;85;21159;-81
2020/12/14 04:31:01;;;;;;;30.32;15.53;;;;;;;-1.04;92.43;96738.16;1679508;84;21313;-81
2020/12/14 04:33:28;;;;;;;31.12;15.43;;;;;;;-1.04;92.45;96746.77;1679535;85;21626;-81
2020/12/14 04:35:55;;;;;;;26.00;13.70;;;;;;;-1.04;92.45;96746.77;1679534;85;21551;-81
2020/12/14 04:38:22;;;;;;;30.52;16.02;;;;;;;-1.04;92.32;96738.96;1679502;84;21539;-81
2020/12/14 04:40:49;;;;;;;29.10;16.73;;;;;;;-1.06;92.28;96746.17;1679553;84;21519;-81
2020/12/14 04:43:17;;;;;;;32.08;16.50;;;;;;;-1.09;92.25;96755.69;1679450;85;21710;-81
2020/12/14 04:45:46;;;;;;;28.95;14.23;;;;;;;-1.10;92.26;96754.59;1679735;85;21172;-81
2020/12/14 04:48:15;;;;;;;28.73;14.90;;;;;;;-1.12;92.30;96752.70;1660111;85;21547;-81
2020/12/14 04:50:44;;;;;;;25.43;16.50;;;;;;;-1.13;92.28;96749.27;1679910;84;21206;-81
2020/12/14 04:53:11;;;;;;;31.52;15.78;;;;;;;-1.14;92.30;96762.47;1679536;85;21503;-81
2020/12/14 04:55:38;;;;;;;25.52;13.60;;;;;;;-1.17;92.34;96759.78;1679537;85;21496;-81
2020/12/14 04:58:06;;;;;;;26.52;15.23;;;;;;;-1.15;92.41;96767.38;1679475;85;21650;-81
2020/12/14 05:00:36;;;;;;;29.27;14.83;;;;;;;-1.16;92.41;96770.48;1679742;84;21155;-81
2020/12/14 05:03:04;;;;;;;28.38;15.03;;;;;;;-1.14;92.44;96771.58;1679449;85;21159;-81
2020/12/14 05:05:32;;;;;;;30.27;15.50;;;;;;;-1.12;92.41;96782.11;1679406;84;21284;-81
2020/12/14 05:07:59;;;;;;;30.12;13.83;;;;;;;-1.08;92.41;96791.61;1679443;84;21161;-81
2020/12/14 05:10:29;;;;;;;26.73;15.20;;;;;;;-1.08;92.39;96791.61;1679473;84;21313;-81
2020/12/14 05:12:57;;;;;;;19.80;11.05;;;;;;;-1.07;92.38;96790.61;1679549;85;21313;-81
2020/12/14 05:15:30;;;;;;;31.25;14.90;;;;;;;-1.05;92.36;96801.61;1679446;85;21294;-81
2020/12/14 05:18:17;;;;;;;26.95;13.93;;;;;;;-1.06;92.32;96811.72;1679458;85;21678;-81
2020/12/14 05:20:58;;;;;;;32.60;16.82;;;;;;;-1.05;92.34;96812.02;1679487;84;21164;-81
2020/12/14 05:23:27;;;;;;;29.40;15.32;;;;;;;-1.07;92.33;96815.32;1697387;84;21673;-81
2020/12/14 05:26:12;;;;;;;27.85;15.28;;;;;;;-1.07;92.38;96819.22;1710125;84;21172;-81
2020/12/14 05:28:40;;;;;;;27.65;15.23;;;;;;;-1.07;92.41;96814.82;1710040;84;21116;-82
2020/12/14 05:31:19;;;;;;;26.57;13.05;;;;;;;-1.06;92.40;96820.32;1710124;82;21208;-81
2020/12/14 05:33:46;;;;;;;17.65;9.93;;;;;;;-1.05;92.37;96816.72;1710525;84;21175;-81
2020/12/14 05:36:17;;;;;;;27.75;14.80;;;;;;;-1.03;92.40;96824.32;1710109;84;21547;-82
2020/12/14 05:38:44;;;;;;;29.95;15.00;;;;;;;-1.05;92.41;96822.42;1710116;84;21175;-81
2020/12/14 05:41:11;;;;;;;25.37;13.88;;;;;;;-1.01;92.39;96832.72;1710297;82;21166;-81
2020/12/14 05:43:38;;;;;;;28.83;14.87;;;;;;;-1.01;92.41;96831.42;1710077;84;21182;-82
2020/12/14 05:46:16;;;;;;;30.02;16.50;;;;;;;-1.01;92.37;96834.02;1710099;84;21172;-81
2020/12/14 05:48:44;;;;;;;19.90;11.37;;;;;;;-1.01;92.39;96843.13;1710246;84;21504;-81
2020/12/14 05:51:12;;;;;;;26.25;15.00;;;;;;;-0.99;92.39;96848.93;1710052;82;21175;-82
2020/12/14 05:53:53;;;;;;;25.65;14.80;;;;;;;-0.99;92.41;96841.92;1710123;84;21166;-81
2020/12/14 05:56:20;;;;;;;30.85;14.80;;;;;;;-1.00;92.36;96846.83;1710373;84;21171;-81
2020/12/14 05:58:51;;;;;;;26.73;15.00;;;;;;;-0.99;92.39;96845.03;1709966;84;21533;-81
2020/12/14 06:01:20;;;;;;;27.30;14.40;;;;;;;-1.00;92.39;96852.53;1710038;82;21163;-81
2020/12/14 06:03:49;;;;;;;25.97;15.20;;;;;;;-0.99;92.37;96862.74;1685637;84;21166;-81
2020/12/14 06:06:19;;;;;;;29.98;15.18;;;;;;;-0.99;92.38;96858.04;1710155;84;21167;-81
2020/12/14 06:08:51;;;;;;;31.42;15.50;;;;;;;-0.99;92.39;96861.94;1710142;84;21135;-81
2020/12/14 06:11:21;;;;;;;25.43;13.80;;;;;;;-1.01;92.40;96860.84;1708940;82;21151;-81
2020/12/14 06:13:52;;;;;;;21.65;13.20;;;;;;;-1.02;92.41;96861.84;1710004;84;21298;-81
2020/12/14 06:16:23;;;;;;;25.60;14.13;;;;;;;-1.01;92.45;96863.95;1710066;84;21503;-81
2020/12/14 06:18:52;;;;;;;26.90;13.22;;;;;;;-1.01;92.45;96863.45;1709693;84;21166;-81
2020/12/14 06:21:57;;;;;;;22.42;12.98;;;;;;;-1.00;92.50;96866.34;1710009;82;21162;-81
2020/12/14 06:24:26;;;;;;;19.65;10.72;;;;;;;-0.99;92.48;96865.84;1683629;84;21650;-81
2020/12/14 06:26:54;;;;;;;25.90;14.05;;;;;;;-0.98;92.51;96870.08;1660130;85;21547;-82
2020/12/14 06:29:35;;;;;;;25.92;13.90;;;;;;;-0.97;92.53;96867.77;1679547;85;21582;-81
2020/12/14 06:32:04;;;;;;;25.75;14.28;;;;;;;-0.94;92.52;96872.58;1679440;85;21302;-82
2020/12/14 06:34:37;;;;;;;23.87;12.13;;;;;;;-0.93;92.52;96874.17;1659932;85;21128;-82
2020/12/14 06:37:05;;;;;;;28.30;13.83;;;;;;;-0.92;92.55;96876.58;1679481;84;21658;-82
2020/12/14 06:39:40;;;;;;;26.70;12.78;;;;;;;-0.93;92.54;96874.98;1679308;84;21300;-82
2020/12/14 06:42:15;;;;;;;24.32;14.68;;;;;;;-0.94;92.52;96881.18;1679414;85;21302;-82
2020/12/14 06:44:50;;;;;;;26.90;13.90;;;;;;;-0.94;92.54;96898.59;1679369;85;21290;-82
2020/12/14 06:47:19;;;;;;;22.37;12.33;;;;;;;-0.92;92.54;96898.69;1679435;84;21584;-82
2020/12/14 06:49:47;;;;;;;24.37;12.25;;;;;;;-0.88;92.54;96900.89;1679325;84;21306;-82
2020/12/14 06:52:36;;;;;;;23.80;13.08;;;;;;;-0.90;92.53;96916.71;1679551;84;21619;-82
2020/12/14 06:55:04;;;;;;;22.65;12.78;;;;;;;-0.95;92.58;96913.41;1679029;85;21285;-82
2020/12/14 06:57:37;;;;;;;23.62;13.90;;;;;;;-0.95;92.61;96927.72;1679833;85;21135;-82
2020/12/14 07:00:08;;;;;;;21.30;12.70;;;;;;;-0.96;92.62;96928.72;1679530;84;21160;-82
2020/12/14 07:02:39;;;;;;;23.45;13.45;;;;;;;-0.94;92.70;96929.82;1679767;85;21501;-82
2020/12/14 07:05:33;;;;;;;23.52;12.75;;;;;;;-0.91;92.72;96928.13;1679537;84;21354;-82
2020/12/14 07:08:02;;;;;;;20.32;10.15;;;;;;;-0.86;92.76;96917.11;1679685;85;21647;-81
2020/12/14 07:10:31;;;;;;;23.18;12.63;;;;;;;-0.81;92.83;96920.73;1679505;84;21206;-81
2020/12/14 07:12:59;;;;;;;22.58;13.25;;;;;;;-0.79;92.82;96912.23;1679560;85;21155;-81
2020/12/14 07:15:33;;;;;;;21.40;11.33;;;;;;;-0.76;92.89;96911.82;1679457;85;21172;-81
2020/12/14 07:18:14;;;;;;;22.32;12.15;;;;;;;-0.76;92.85;96911.82;1679526;85;21294;-81
2020/12/14 07:20:55;;;;;;;22.15;11.75;;;;;;;-0.74;92.82;96915.02;1679733;84;21290;-81
2020/12/14 07:23:25;;;;;;;23.27;11.88;;;;;;;-0.70;92.91;96916.25;1668390;84;21166;-81
2020/12/14 07:25:55;;;;;;;18.00;11.05;;;;;;;-0.70;92.85;96912.34;1710382;84;21497;-81
2020/12/14 07:28:48;;;;;;;23.60;11.53;;;;;;;-0.68;92.89;96916.05;1710265;84;21170;-81
2020/12/14 07:31:21;;;;;;;19.40;11.68;;;;;;;-0.67;92.88;96917.14;1670307;84;21163;-82
2020/12/14 07:33:56;;;;;;;21.35;12.13;;;;;;;-0.61;92.87;96916.84;1710069;84;21115;-81
2020/12/14 07:36:28;;;;;;;25.97;13.93;;;;;;;-0.57;92.85;96920.63;1710148;84;21148;-81
2020/12/14 07:38:59;;;;;;;25.82;14.15;;;;;;;-0.50;92.89;96919.35;1710200;84;21168;-80
2020/12/14 07:41:27;;;;;;;28.98;15.50;;;;;;;-0.43;92.89;96923.54;1710107;82;21187;-81
2020/12/14 07:43:59;;;;;;;28.07;15.70;;;;;;;-0.45;92.73;96918.23;1710231;84;21175;-81
2020/12/14 07:46:33;;;;;;;31.12;16.20;;;;;;;-0.52;92.51;96914.34;1710158;84;21670;-81
2020/12/14 07:49:15;;;;;;;23.27;12.88;;;;;;;-0.56;92.41;96913.63;1710041;84;21133;-81
2020/12/14 07:51:46;;;;;;;32.13;17.20;;;;;;;-0.56;92.38;96916.23;1710058;82;21550;-81
2020/12/14 07:54:20;;;;;;;23.95;14.70;;;;;;;-0.54;92.35;96924.66;1710183;84;21213;-81
2020/12/14 07:56:57;;;;;;;40.88;21.20;;;;;;;-0.58;92.33;96924.24;1710216;84;21570;-81
2020/12/14 07:59:29;;;;;;;24.15;13.55;;;;;;;-0.55;92.38;96926.47;1709974;82;21128;-81
2020/12/14 08:01:58;;;;;;;28.42;14.87;;;;;;;-0.54;92.40;96925.47;1710302;84;21487;-81
2020/12/14 08:04:30;;;;;;;46.63;23.62;;;;;;;-0.54;92.42;96920.26;1710448;84;21191;-81
2020/12/14 08:06:58;;;;;;;36.80;17.02;;;;;;;-0.47;92.50;96917.64;1709824;84;21186;-81
2020/12/14 08:09:39;;;;;;;37.78;19.25;;;;;;;-0.43;92.48;96911.82;1710025;82;21167;-81
2020/12/14 08:12:07;;;;;;;30.40;16.87;;;;;;;-0.42;92.35;96915.25;1710323;84;21151;-81
2020/12/14 08:14:35;;;;;;;18.90;10.78;;;;;;;-0.47;92.28;96920.25;1710084;84;21547;-81
2020/12/14 08:17:03;;;;;;;25.05;12.82;;;;;;;-0.50;92.20;96918.05;1710286;84;21154;-81
2020/12/14 08:19:36;;;;;;;35.75;17.98;;;;;;;-0.62;92.19;96925.15;1709980;82;21144;-81
2020/12/14 08:22:13;;;;;;;59.25;25.02;;;;;;;-0.64;92.25;96931.06;1710112;84;21163;-81
2020/12/14 08:24:42;;;;;;;61.77;26.25;;;;;;;-0.59;92.34;96931.75;1710154;84;21528;-81
2020/12/14 08:27:13;;;;;;;41.05;18.87;;;;;;;-0.55;92.36;96934.78;1710572;84;21167;-81
2020/12/14 08:30:00;;;;;;;23.92;13.60;;;;;;;-0.51;92.37;96940.69;1710075;82;21143;-81
2020/12/14 08:32:40;;;;;;;21.85;12.60;;;;;;;-0.49;92.32;96938.68;1878027;76;22590;-80
2020/12/14 08:35:25;;;;;;;28.92;14.60;;;;;;;-0.50;92.33;96940.19;1819403;79;21498;-80
2020/12/14 08:38:05;;;;;;;27.77;16.10;;;;;;;-0.47;92.38;96934.06;1819343;79;21155;-81
2020/12/14 08:40:33;;;;;;;39.67;19.82;;;;;;;-0.44;92.33;96938.06;1835048;77;21503;-81
2020/12/14 08:43:18;;;;;;;26.30;14.30;;;;;;;-0.44;92.23;96941.47;1801824;79;21116;-81
2020/12/14 08:46:08;;;;;;;38.88;17.37;;;;;;;-0.44;92.21;96947.98;1793063;80;21527;-81
2020/12/14 08:48:46;;;;;;;87.15;34.75;;;;;;;-0.43;92.20;96952.69;1780070;80;21144;-81
2020/12/14 08:51:30;;;;;;;74.00;30.10;;;;;;;-0.40;92.20;96945.80;1793092;79;21116;-82
2020/12/14 08:54:14;;;;;;;22.62;12.23;;;;;;;-0.33;92.29;96951.30;1793079;79;21123;-81
2020/12/14 08:56:42;;;;;;;24.35;12.93;;;;;;;-0.32;91.99;96952.09;1792624;80;21492;-81
2020/12/14 08:59:23;;;;;;;21.57;10.28;;;;;;;-0.41;91.96;96950.72;1793057;79;21134;-81
2020/12/14 09:02:04;;;;;;;11.55;7.58;;;;;;;-0.46;91.82;96951.80;1793233;79;21115;-81
2020/12/14 09:04:35;;;;;;;17.55;10.32;;;;;;;-0.54;91.72;96957.22;1793252;80;21111;-81
2020/12/14 09:07:02;;;;;;;17.48;10.60;;;;;;;-0.61;91.73;96954.09;1793286;79;21088;-81
2020/12/14 09:09:38;;;;;;;22.82;12.63;;;;;;;-0.54;91.83;96949.41;1792969;80;21166;-81
2020/12/14 09:12:13;;;;;;;21.00;10.48;;;;;;;-0.54;91.83;96949.41;1791665;80;21152;-81
2020/12/14 09:14:41;;;;;;;23.80;12.18;;;;;;;-0.52;91.83;96953.41;1793007;79;21154;-81
2020/12/14 09:17:19;;;;;;;23.45;11.97;;;;;;;-0.49;91.87;96936.58;1793086;79;21487;-81
2020/12/14 09:19:51;;;;;;;22.27;11.70;;;;;;;-0.49;91.87;96936.58;1793001;79;21144;-81
2020/12/14 09:22:25;;;;;;;20.50;12.05;;;;;;;-0.51;91.71;96937.28;1793213;79;21112;-81
2020/12/14 09:24:53;;;;;;;20.68;11.48;;;;;;;-0.51;91.70;96937.28;1793047;79;21127;-81
2020/12/14 09:27:22;;;;;;;17.25;11.68;;;;;;;-0.48;91.69;96929.06;1793021;79;21147;-82
2020/12/14 09:29:50;;;;;;;22.77;13.05;;;;;;;-0.43;91.77;96927.45;1793331;79;21143;-81
2020/12/14 09:32:18;;;;;;;20.88;12.37;;;;;;;-0.38;91.81;96921.66;1801614;79;21507;-81
2020/12/14 09:34:45;;;;;;;24.60;13.93;;;;;;;-0.31;91.62;96923.23;1804816;79;21123;-81
2020/12/14 09:37:12;;;;;;;24.85;13.43;;;;;;;-0.31;91.62;96923.23;1804679;79;21150;-81
2020/12/14 09:39:41;;;;;;;22.22;12.25;;;;;;;-0.26;91.62;96923.16;1773131;81;21158;-81
2020/12/14 09:42:08;;;;;;;23.25;12.40;;;;;;;-0.23;91.56;96922.25;1804067;79;21138;-81
2020/12/14 09:44:36;;;;;;;27.10;15.13;;;;;;;-0.21;91.40;96928.55;1772613;81;21528;-81
2020/12/14 09:47:05;;;;;;;23.15;13.08;;;;;;;-0.22;91.32;96926.45;1772639;81;21099;-81
2020/12/14 09:49:32;;;;;;;23.30;12.30;;;;;;;-0.26;91.23;96916.14;1772630;81;21130;-82
2020/12/14 09:51:59;;;;;;;20.32;11.70;;;;;;;-0.17;91.15;96924.03;1772556;81;21155;-81
2020/12/14 09:54:27;;;;;;;19.73;11.20;;;;;;;-0.16;91.07;96922.22;1772542;81;21147;-81
2020/12/14 09:56:54;;;;;;;20.17;12.58;;;;;;;-0.28;90.81;96929.05;1772572;81;21128;-82
2020/12/14 09:59:21;;;;;;;23.10;12.90;;;;;;;-0.46;90.86;96904.92;1772652;80;21143;-81
2020/12/14 10:01:49;;;;;;;22.75;12.95;;;;;;;-0.38;90.97;96910.73;1772658;81;21131;-81
2020/12/14 10:04:16;;;;;;;39.58;19.15;;;;;;;-0.25;91.13;96926.86;1772634;81;21185;-82
2020/12/14 10:06:49;;;;;;;85.20;35.05;;;;;;;-0.22;91.07;96927.75;1772768;80;21135;-82
2020/12/14 10:09:16;;;;;;;37.88;19.55;;;;;;;-0.21;91.03;96922.84;1772625;80;21114;-81
2020/12/14 10:11:44;;;;;;;23.90;14.33;;;;;;;-0.21;90.80;96918.94;1772031;81;21154;-81
2020/12/14 10:14:11;;;;;;;21.05;12.03;;;;;;;-0.22;90.76;96916.03;1772593;81;21164;-82
2020/12/14 10:16:38;;;;;;;35.03;16.82;;;;;;;-0.21;90.80;96913.72;1772195;81;21156;-82
2020/12/14 10:19:05;;;;;;;24.43;13.25;;;;;;;-0.17;90.85;96916.22;1772326;81;21267;-81
2020/12/14 10:21:32;;;;;;;28.38;15.25;;;;;;;-0.13;90.86;96916.13;1738659;82;21310;-82
2020/12/14 10:24:00;;;;;;;21.55;11.85;;;;;;;-0.10;90.85;96909.20;1756080;81;21303;-82
2020/12/14 10:26:27;;;;;;;17.52;11.45;;;;;;;-0.05;90.80;96909.89;1755779;81;21153;-82
2020/12/14 10:28:54;;;;;;;24.00;12.33;;;;;;;-0.06;90.64;96906.98;1755869;82;21141;-81
2020/12/14 10:31:21;;;;;;;28.85;16.15;;;;;;;-0.12;90.43;96899.48;1755698;82;21157;-82
2020/12/14 10:33:48;;;;;;;25.62;15.13;;;;;;;-0.22;90.63;96882.16;1755857;81;21144;-82
2020/12/14 10:36:18;;;;;;;20.23;12.20;;;;;;;-0.14;90.38;96893.69;1755875;81;21311;-82
2020/12/14 10:38:46;;;;;;;21.37;12.23;;;;;;;-0.12;90.39;96898.19;1756015;81;21133;-81
2020/12/14 10:41:18;;;;;;;17.42;11.22;;;;;;;-0.09;90.42;96899.08;1755869;82;21137;-82
2020/12/14 10:43:46;;;;;;;20.88;12.23;;;;;;;-0.16;90.19;96900.08;1785736;80;21578;-81
2020/12/14 10:46:13;;;;;;;16.80;10.05;;;;;;;-0.22;90.25;96909.52;1786741;80;21133;-81
2020/12/14 10:48:41;;;;;;;18.67;10.95;;;;;;;-0.21;90.36;96909.81;1786848;80;21174;-82
2020/12/14 10:51:08;;;;;;;19.87;11.22;;;;;;;-0.17;90.39;96904.99;1786709;80;21132;-82
2020/12/14 10:53:35;;;;;;;19.02;10.28;;;;;;;-0.19;90.35;96910.41;1762796;80;21147;-82
2020/12/14 10:56:03;;;;;;;22.17;12.40;;;;;;;-0.17;90.33;96904.48;1786790;80;21139;-81
2020/12/14 10:58:30;;;;;;;20.57;12.07;;;;;;;-0.15;90.29;96908.98;1786818;80;21123;-82
2020/12/14 11:00:57;;;;;;;23.25;13.13;;;;;;;-0.14;90.28;96904.11;1803932;79;21484;-81
2020/12/14 11:03:25;;;;;;;28.05;13.80;;;;;;;-0.14;90.27;96900.67;1772562;81;21143;-81
2020/12/14 11:05:55;;;;;;;23.30;12.55;;;;;;;-0.09;90.35;96900.38;1804165;79;21138;-82
2020/12/14 11:08:23;;;;;;;20.30;12.47;;;;;;;-0.04;90.35;96896.65;1772539;81;21130;-81
2020/12/14 11:10:52;;;;;;;27.37;14.33;;;;;;;-0.01;90.33;96894.93;1772417;80;21205;-81
2020/12/14 11:13:19;;;;;;;28.55;14.58;;;;;;;-0.03;90.11;96894.34;1772126;81;21127;-82
2020/12/14 11:15:46;;;;;;;27.95;15.05;;;;;;;-0.03;90.15;96886.52;1772182;81;21120;-82
2020/12/14 11:18:13;;;;;;;18.90;10.88;;;;;;;0.00;90.12;96890.55;1772311;81;21226;-81
2020/12/14 11:20:41;;;;;;;24.57;13.43;;;;;;;0.04;90.11;96895.64;1772200;81;21502;-81
2020/12/14 11:23:08;;;;;;;26.97;13.75;;;;;;;0.08;90.08;96901.24;1772177;81;21151;-82
2020/12/14 11:25:35;;;;;;;23.27;12.33;;;;;;;0.12;90.10;96898.02;1738585;82;21256;-82
2020/12/14 11:28:02;;;;;;;24.55;13.15;;;;;;;0.16;90.02;96894.52;1755778;82;21148;-82